Time;durP1;ratioP1;P1;durP2;ratioP2;P2;SDS_P1;SDS_P2;PMS_P1;PMS_P2;Temp;Humidity;BMP_temperature;BMP_pressure;BME280_temperature;BME280_humidity;BME280_pressure;Samples;Min_cycle;Max_cycle;Signal;HPM_P1;HPM_P2
2022/05/31 00:01:20;;;;;;;1.38;1.08;;;13.10;99.90;;;;;;5064510;28;20088;-82
2022/05/31 00:03:47;;;;;;;2.65;1.38;;;13.00;99.90;;;;;;5065441;28;20080;-84
2022/05/31 00:06:14;;;;;;;2.20;1.40;;;13.00;99.90;;;;;;5049534;28;20040;-81
2022/05/31 00:08:44;;;;;;;;;;;13.00;99.90;;;;;;5066330;28;20493;-82
2022/05/31 00:11:11;;;;;;;3.03;1.20;;;13.00;99.90;;;;;;5063508;28;20301;-82
2022/05/31 00:13:38;;;;;;;2.25;1.13;;;12.90;99.90;;;;;;5049667;28;20046;-80
2022/05/31 00:16:05;;;;;;;3.75;1.33;;;12.90;99.90;;;;;;5045921;28;20045;-82
2022/05/31 00:18:32;;;;;;;2.22;1.00;;;12.80;99.90;;;;;;5066770;28;20055;-83
2022/05/31 00:20:59;;;;;;;2.08;1.20;;;12.80;99.90;;;;;;5056067;28;20045;-83
2022/05/31 00:23:26;;;;;;;3.40;1.40;;;12.80;99.90;;;;;;5064920;28;20133;-82
2022/05/31 00:25:53;;;;;;;1.48;1.02;;;12.70;99.90;;;;;;5046419;28;20052;-82
2022/05/31 00:28:19;;;;;;;2.45;1.42;;;12.70;99.90;;;;;;5063077;28;20049;-82
2022/05/31 00:30:46;;;;;;;2.15;1.30;;;12.60;99.90;;;;;;5065998;28;20036;-81
2022/05/31 00:33:13;;;;;;;3.33;1.25;;;12.60;99.90;;;;;;5066789;28;20097;-83
2022/05/31 00:35:45;;;;;;;3.67;1.52;;;12.60;99.90;;;;;;5063130;28;20582;-82
2022/05/31 00:38:13;;;;;;;1.40;1.30;;;12.50;99.90;;;;;;5062387;28;20091;-83
2022/05/31 00:40:40;;;;;;;2.70;1.27;;;12.50;99.90;;;;;;5062510;28;20090;-83
2022/05/31 00:43:09;;;;;;;2.97;1.40;;;12.40;99.90;;;;;;5046160;28;20049;-82
2022/05/31 00:46:03;;;;;;;2.30;1.33;;;12.40;99.90;;;;;;5066816;28;20052;-80
2022/05/31 00:48:48;;;;;;;2.42;1.33;;;12.40;99.90;;;;;;5051020;28;20114;-82
2022/05/31 00:51:17;;;;;;;3.88;1.58;;;12.30;99.90;;;;;;5066665;28;20080;-82
2022/05/31 00:53:59;;;;;;;3.45;1.30;;;12.20;99.90;;;;;;5064638;28;20514;-83
2022/05/31 00:56:29;;;;;;;3.65;1.27;;;12.20;99.90;;;;;;5063614;28;20140;-83
2022/05/31 00:59:11;;;;;;;2.72;1.30;;;12.20;99.90;;;;;;5066543;28;20450;-82
2022/05/31 01:01:41;;;;;;;2.45;1.35;;;12.10;99.90;;;;;;5063319;28;20055;-82
2022/05/31 01:04:10;;;;;;;2.75;1.35;;;12.10;99.90;;;;;;5047691;28;20166;-82
2022/05/31 01:06:37;;;;;;;2.35;1.13;;;12.00;99.90;;;;;;5046440;28;20053;-81
2022/05/31 01:09:04;;;;;;;1.75;1.40;;;12.00;99.90;;;;;;5045931;28;20041;-82
2022/05/31 01:11:34;;;;;;;4.68;1.40;;;12.00;99.90;;;;;;5047562;28;20083;-83
2022/05/31 01:14:01;;;;;;;2.05;1.20;;;12.00;99.90;;;;;;5066342;28;20045;-82
2022/05/31 01:16:28;;;;;;;3.08;1.17;;;12.00;99.90;;;;;;5044083;28;20055;-81
2022/05/31 01:18:56;;;;;;;1.65;1.05;;;12.00;99.90;;;;;;5048235;28;20051;-82
2022/05/31 01:21:23;;;;;;;2.55;1.13;;;11.90;99.90;;;;;;5055127;28;20126;-82
2022/05/31 01:23:57;;;;;;;5.93;1.30;;;11.90;99.90;;;;;;5048986;28;20639;-82
2022/05/31 01:26:41;;;;;;;3.20;1.35;;;11.90;99.90;;;;;;5064762;28;20058;-81
2022/05/31 01:29:12;;;;;;;3.55;1.30;;;11.90;99.90;;;;;;5063727;28;20510;-83
2022/05/31 01:31:56;;;;;;;4.07;1.50;;;11.80;99.90;;;;;;5065224;28;20048;-82
2022/05/31 01:34:31;;;;;;;2.83;1.27;;;11.80;99.90;;;;;;5046012;28;20060;-79
2022/05/31 01:36:58;;;;;;;3.13;1.20;;;11.80;99.90;;;;;;5061458;28;20508;-82
2022/05/31 01:39:46;;;;;;;2.55;1.52;;;11.80;99.90;;;;;;5064928;28;20048;-81
2022/05/31 01:42:34;;;;;;;1.92;1.15;;;11.70;99.90;;;;;;5064519;28;20048;-82
2022/05/31 01:45:16;;;;;;;2.92;1.40;;;11.70;99.90;;;;;;5065364;28;20044;-82
2022/05/31 01:47:44;;;;;;;4.18;1.25;;;11.70;99.90;;;;;;5062821;28;20124;-82
2022/05/31 01:50:14;;;;;;;4.40;1.17;;;11.70;99.90;;;;;;5044113;28;20099;-79
2022/05/31 01:52:42;;;;;;;4.00;1.80;;;11.70;99.90;;;;;;5065887;28;20124;-83
2022/05/31 01:55:09;;;;;;;3.25;1.35;;;11.70;99.90;;;;;;5045232;28;20041;-82
2022/05/31 01:57:38;;;;;;;2.55;1.23;;;11.60;99.90;;;;;;5061201;28;20049;-82
2022/05/31 02:00:08;;;;;;;1.75;1.20;;;11.60;99.90;;;;;;5047565;28;20059;-81
2022/05/31 02:02:35;;;;;;;2.60;1.45;;;11.60;99.90;;;;;;5044518;28;20049;-81
2022/05/31 02:05:02;;;;;;;6.13;1.25;;;11.70;99.90;;;;;;5063519;28;20048;-83
2022/05/31 02:07:30;;;;;;;3.28;1.40;;;11.70;99.90;;;;;;5045054;28;20051;-82
2022/05/31 02:09:58;;;;;;;2.97;1.40;;;11.70;99.90;;;;;;5062387;28;20194;-81
2022/05/31 02:12:28;;;;;;;2.10;1.35;;;11.70;99.90;;;;;;5043111;28;20509;-83
2022/05/31 02:14:56;;;;;;;;;;;11.70;99.90;;;;;;5069726;28;20120;-82
2022/05/31 02:17:23;;;;;;;2.17;1.33;;;11.70;99.90;;;;;;5044219;28;19959;-79
2022/05/31 02:19:50;;;;;;;3.40;1.42;;;11.70;99.90;;;;;;5040072;28;20511;-83
2022/05/31 02:22:20;;;;;;;3.10;1.42;;;11.70;99.90;;;;;;5063670;28;20048;-81
2022/05/31 02:24:46;;;;;;;3.53;1.35;;;11.70;99.90;;;;;;5063561;28;20523;-83
2022/05/31 02:27:14;;;;;;;2.78;1.20;;;11.70;99.90;;;;;;5062417;28;20045;-81
2022/05/31 02:29:41;;;;;;;3.70;1.52;;;11.70;99.90;;;;;;5047024;28;20140;-81
2022/05/31 02:32:11;;;;;;;3.65;1.77;;;11.70;99.90;;;;;;5047058;28;20132;-84
2022/05/31 02:34:44;;;;;;;4.20;1.42;;;11.70;99.90;;;;;;5051371;28;20131;-83
2022/05/31 02:37:10;;;;;;;2.80;1.40;;;11.70;99.90;;;;;;5063062;28;20522;-82
2022/05/31 02:39:38;;;;;;;3.42;1.25;;;11.70;99.90;;;;;;5063314;28;20044;-82
2022/05/31 02:42:06;;;;;;;3.88;1.55;;;11.70;99.90;;;;;;5064162;28;20561;-82
2022/05/31 02:44:33;;;;;;;3.83;1.50;;;11.70;99.90;;;;;;5061569;28;20044;-83
2022/05/31 02:47:01;;;;;;;2.03;1.27;;;11.70;99.90;;;;;;5047888;28;20083;-84
2022/05/31 02:49:28;;;;;;;2.42;1.25;;;11.80;99.90;;;;;;5047905;28;20053;-83
2022/05/31 02:51:57;;;;;;;2.95;1.20;;;11.80;99.90;;;;;;5069770;28;20557;-85
2022/05/31 02:54:25;;;;;;;2.45;1.40;;;11.90;99.90;;;;;;5058926;28;20084;-85
2022/05/31 02:56:52;;;;;;;2.45;1.38;;;11.90;99.90;;;;;;5050903;28;20044;-84
2022/05/31 02:59:18;;;;;;;1.73;1.45;;;11.90;99.90;;;;;;5051020;28;20071;-83
2022/05/31 03:01:45;;;;;;;6.50;1.50;;;11.90;99.90;;;;;;5076358;28;20063;-82
2022/05/31 03:04:13;;;;;;;6.97;1.50;;;11.90;99.90;;;;;;5073349;28;20589;-81
2022/05/31 03:06:40;;;;;;;2.97;1.52;;;11.90;99.90;;;;;;5068438;28;20142;-82
2022/05/31 03:09:07;;;;;;;4.50;1.58;;;11.80;99.90;;;;;;5067986;28;20140;-79
2022/05/31 03:11:46;;;;;;;4.95;1.58;;;11.80;99.90;;;;;;5055646;28;20055;-79
2022/05/31 03:14:24;;;;;;;6.03;1.50;;;11.80;99.90;;;;;;5065378;28;20044;-81
2022/05/31 03:17:11;;;;;;;3.45;1.52;;;11.80;99.90;;;;;;5047343;28;20072;-78
2022/05/31 03:19:45;;;;;;;4.60;1.50;;;11.80;99.90;;;;;;5064078;28;20083;-81
2022/05/31 03:22:18;;;;;;;1.17;1.08;;;11.80;99.90;;;;;;5047775;28;20132;-82
2022/05/31 03:24:56;;;;;;;8.13;1.45;;;11.80;99.90;;;;;;5069701;28;20048;-81
2022/05/31 03:27:23;;;;;;;4.07;1.70;;;11.90;99.90;;;;;;5051170;28;20482;-78
2022/05/31 03:29:52;;;;;;;2.95;1.50;;;11.90;99.90;;;;;;5063317;28;20084;-80
2022/05/31 03:32:20;;;;;;;3.53;1.52;;;11.90;99.90;;;;;;5065481;28;20045;-82
2022/05/31 03:34:47;;;;;;;2.70;1.52;;;11.90;99.90;;;;;;5048168;28;20079;-81
2022/05/31 03:37:14;;;;;;;2.60;1.50;;;11.90;99.90;;;;;;5066775;28;20049;-82
2022/05/31 03:39:40;;;;;;;1.85;1.58;;;11.90;99.90;;;;;;5063549;28;20114;-83
2022/05/31 03:42:07;;;;;;;2.22;1.60;;;11.90;99.90;;;;;;5064366;28;20049;-81
2022/05/31 03:44:34;;;;;;;2.50;1.60;;;11.90;99.90;;;;;;5060227;28;20077;-80
2022/05/31 03:47:05;;;;;;;4.93;1.83;;;11.90;99.90;;;;;;5043301;28;20099;-81
2022/05/31 03:49:33;;;;;;;3.65;1.38;;;11.90;99.90;;;;;;5063243;28;20051;-81
2022/05/31 03:52:00;;;;;;;3.47;1.30;;;11.90;99.90;;;;;;5065280;28;20049;-81
2022/05/31 03:54:28;;;;;;;4.65;1.65;;;11.90;99.90;;;;;;5063396;28;20076;-81
2022/05/31 03:56:54;;;;;;;3.53;1.23;;;11.90;99.90;;;;;;5066512;28;20047;-81
2022/05/31 03:59:21;;;;;;;2.28;1.38;;;12.00;99.90;;;;;;5044690;28;20092;-79
2022/05/31 04:01:48;;;;;;;3.05;1.73;;;12.00;99.90;;;;;;5049230;28;20055;-78
2022/05/31 04:04:15;;;;;;;4.80;1.60;;;12.00;99.90;;;;;;5054947;28;20496;-80
2022/05/31 04:06:41;;;;;;;1.25;1.13;;;12.00;99.90;;;;;;5045412;28;20132;-79
2022/05/31 04:09:08;;;;;;;3.28;1.38;;;12.00;99.90;;;;;;5055131;28;20080;-82
2022/05/31 04:11:35;;;;;;;3.38;1.80;;;11.90;99.90;;;;;;5043758;28;20044;-81
2022/05/31 04:14:02;;;;;;;3.47;1.88;;;11.90;99.90;;;;;;5057061;28;20048;-81
2022/05/31 04:16:29;;;;;;;3.10;1.75;;;11.90;99.90;;;;;;5047277;28;20426;-80
2022/05/31 04:18:57;;;;;;;2.13;1.50;;;11.90;99.90;;;;;;5065236;28;20505;-81
2022/05/31 04:21:24;;;;;;;2.20;1.48;;;12.00;99.90;;;;;;5063762;28;20049;-81
2022/05/31 04:23:59;;;;;;;3.25;1.88;;;12.00;99.90;;;;;;5049193;28;20052;-81
2022/05/31 04:26:36;;;;;;;3.78;1.75;;;12.00;99.90;;;;;;5063856;28;20095;-81
2022/05/31 04:29:03;;;;;;;4.28;1.55;;;12.00;99.90;;;;;;5045988;28;20044;-83
2022/05/31 04:31:30;;;;;;;3.42;1.98;;;12.00;99.90;;;;;;5048438;28;20044;-82
2022/05/31 04:33:56;;;;;;;3.83;1.80;;;12.00;99.90;;;;;;5053549;28;20076;-81
2022/05/31 04:36:23;;;;;;;2.97;2.05;;;12.00;99.90;;;;;;5048940;28;20509;-82
2022/05/31 04:38:50;;;;;;;4.47;2.53;;;12.10;99.90;;;;;;5066537;28;20056;-80
2022/05/31 04:41:26;;;;;;;4.72;2.15;;;12.10;99.90;;;;;;5046296;28;20053;-83
2022/05/31 04:43:55;;;;;;;5.18;1.77;;;12.10;99.90;;;;;;5046358;28;20589;-83
2022/05/31 04:46:24;;;;;;;2.85;1.85;;;12.20;99.90;;;;;;5048644;28;20422;-80
2022/05/31 04:48:56;;;;;;;5.40;1.92;;;12.40;99.90;;;;;;5044513;28;20083;-82
2022/05/31 04:51:23;;;;;;;3.63;1.80;;;12.60;99.90;;;;;;5066468;28;20524;-83
2022/05/31 04:53:50;;;;;;;2.50;1.48;;;12.70;99.90;;;;;;5064177;28;20131;-82
2022/05/31 04:56:19;;;;;;;4.90;1.75;;;13.00;99.90;;;;;;5063650;28;20040;-79
2022/05/31 04:58:49;;;;;;;6.53;2.15;;;13.10;99.90;;;;;;5061862;28;20502;-82
2022/05/31 05:01:16;;;;;;;4.18;1.83;;;13.30;99.90;;;;;;5065796;28;20049;-83
2022/05/31 05:03:44;;;;;;;3.00;1.75;;;13.40;99.90;;;;;;5061872;28;20052;-83
2022/05/31 05:06:13;;;;;;;5.15;2.30;;;13.50;99.90;;;;;;5055063;28;20048;-81
2022/05/31 05:08:40;;;;;;;3.03;1.70;;;13.60;99.90;;;;;;5045425;28;20108;-83
2022/05/31 05:11:11;;;;;;;4.43;2.00;;;13.80;99.90;;;;;;5062966;28;20051;-82
2022/05/31 05:13:39;;;;;;;2.63;1.80;;;13.90;99.90;;;;;;5064760;28;20049;-81
2022/05/31 05:16:07;;;;;;;8.43;2.42;;;13.90;99.90;;;;;;5062390;28;20521;-81
2022/05/31 05:18:34;;;;;;;2.95;2.10;;;14.00;99.90;;;;;;5086326;22;20117;-83
2022/05/31 05:21:03;;;;;;;2.83;2.10;;;14.00;99.90;;;;;;5094421;28;20055;-83
2022/05/31 05:23:30;;;;;;;5.68;2.40;;;14.00;99.90;;;;;;5087387;28;20050;-82
2022/05/31 05:25:58;;;;;;;8.13;2.83;;;13.90;99.90;;;;;;5093261;28;20047;-84
2022/05/31 05:31:41;;;;;;;5.13;2.50;;;14.00;99.90;;;;;;5091687;28;20048;-82
2022/05/31 05:34:09;;;;;;;4.40;2.28;;;14.00;99.90;;;;;;5081061;28;20052;-83
2022/05/31 05:36:35;;;;;;;9.32;2.33;;;14.00;99.90;;;;;;5091627;28;20062;-82
2022/05/31 05:39:03;;;;;;;6.05;2.10;;;14.00;99.90;;;;;;5085838;28;20406;-82
2022/05/31 05:41:30;;;;;;;6.07;2.17;;;14.00;99.90;;;;;;5087260;28;20091;-82
2022/05/31 05:43:57;;;;;;;2.58;2.05;;;14.10;99.90;;;;;;5083700;28;20052;-83
2022/05/31 05:46:26;;;;;;;3.95;1.88;;;14.00;99.90;;;;;;5079252;28;20080;-82
2022/05/31 05:48:54;;;;;;;3.97;1.83;;;14.10;99.90;;;;;;5082252;28;20505;-82
2022/05/31 05:51:26;;;;;;;5.95;2.50;;;14.10;99.90;;;;;;5085220;28;20135;-83
2022/05/31 05:53:52;;;;;;;;;;;14.10;99.90;;;;;;5086931;28;20140;-82
2022/05/31 05:56:20;;;;;;;5.53;1.90;;;14.20;99.90;;;;;;5083620;28;20389;-82
2022/05/31 05:58:48;;;;;;;2.00;1.70;;;14.30;99.90;;;;;;5085780;28;20047;-83
2022/05/31 06:01:44;;;;;;;4.80;1.90;;;14.40;99.90;;;;;;5082888;28;20044;-82
2022/05/31 06:04:46;;;;;;;2.80;1.50;;;14.60;99.90;;;;;;5082507;28;20049;-84
2022/05/31 06:07:26;;;;;;;4.10;2.28;;;14.70;99.90;;;;;;5083588;28;20058;-84
2022/05/31 06:10:00;;;;;;;3.20;2.22;;;14.80;99.90;;;;;;5081722;28;20080;-85
2022/05/31 06:12:31;;;;;;;4.82;1.98;;;15.00;99.90;;;;;;5086150;28;20071;-82
2022/05/31 06:15:08;;;;;;;6.90;2.33;;;15.10;99.90;;;;;;5085706;28;20513;-84
2022/05/31 06:17:40;;;;;;;3.75;2.50;;;15.30;99.90;;;;;;5085680;28;20095;-83
2022/05/31 06:20:08;;;;;;;4.47;2.40;;;15.40;99.90;;;;;;5098445;28;20040;-81
2022/05/31 06:22:37;;;;;;;5.45;2.00;;;15.50;99.90;;;;;;5094316;28;20052;-82
2022/05/31 06:25:04;;;;;;;6.20;2.17;;;15.60;99.90;;;;;;5082744;28;20052;-84
2022/05/31 06:27:31;;;;;;;3.90;2.47;;;15.70;99.90;;;;;;5105571;28;20055;-81
2022/05/31 06:29:58;;;;;;;4.22;2.53;;;15.70;99.90;;;;;;5102796;28;20047;-84
2022/05/31 06:32:25;;;;;;;5.75;2.40;;;15.80;99.90;;;;;;5105264;28;20047;-83
2022/05/31 06:34:55;;;;;;;4.28;2.50;;;15.90;99.90;;;;;;5099000;28;20080;-82
2022/05/31 06:37:22;;;;;;;2.35;2.00;;;15.80;99.90;;;;;;5098932;28;20094;-83
2022/05/31 06:39:48;;;;;;;5.38;2.55;;;15.90;99.90;;;;;;5096054;28;20420;-81
2022/05/31 06:42:15;;;;;;;6.60;2.33;;;15.80;99.90;;;;;;5098128;28;20051;-83
2022/05/31 06:44:43;;;;;;;4.43;1.98;;;15.90;99.90;;;;;;5098922;28;20060;-80
2022/05/31 06:47:10;;;;;;;5.78;2.63;;;15.90;99.90;;;;;;5096760;28;20389;-83
2022/05/31 06:49:38;;;;;;;4.68;2.50;;;15.90;99.90;;;;;;5096465;28;20475;-84
2022/05/31 06:57:41;;;;;;;6.90;2.60;;;15.80;99.90;;;;;;5082889;28;20048;-84
2022/05/31 07:00:11;;;;;;;4.45;2.58;;;15.80;99.90;;;;;;5083940;28;20044;-84
2022/05/31 07:02:38;;;;;;;5.03;2.58;;;15.70;99.90;;;;;;5084430;28;20053;-84
2022/05/31 07:05:06;;;;;;;6.15;2.03;;;15.70;99.90;;;;;;5086899;28;20048;-84
2022/05/31 07:07:34;;;;;;;4.97;2.38;;;15.70;99.90;;;;;;5085184;28;20063;-84
2022/05/31 07:10:00;;;;;;;5.15;2.50;;;15.80;99.90;;;;;;5087849;28;20044;-83
2022/05/31 07:12:27;;;;;;;4.97;1.90;;;16.00;99.90;;;;;;5086062;28;20103;-81
2022/05/31 07:14:54;;;;;;;7.13;2.28;;;16.20;99.90;;;;;;5102576;28;20044;-84
2022/05/31 07:17:21;;;;;;;5.00;2.22;;;16.30;99.90;;;;;;5093581;28;20123;-79
2022/05/31 07:19:48;;;;;;;6.85;2.30;;;16.30;99.90;;;;;;5095138;28;20048;-83
2022/05/31 07:22:34;;;;;;;5.32;2.22;;;16.50;99.90;;;;;;5082927;28;20083;-84
2022/05/31 07:25:01;;;;;;;5.72;2.22;;;16.60;99.90;;;;;;5077617;28;20048;-82
2022/05/31 07:27:28;;;;;;;6.63;2.00;;;16.60;99.90;;;;;;5088280;28;20424;-84
2022/05/31 07:29:55;;;;;;;8.43;2.33;;;16.60;99.90;;;;;;5088029;28;20126;-84
2022/05/31 07:32:22;;;;;;;5.82;2.00;;;16.50;99.90;;;;;;5081458;28;20041;-81
2022/05/31 07:35:08;;;;;;;8.93;2.40;;;16.50;99.90;;;;;;5089025;28;20040;-84
2022/05/31 07:37:35;;;;;;;4.47;2.03;;;16.50;99.90;;;;;;5087655;28;20086;-84
2022/05/31 07:40:03;;;;;;;6.50;2.58;;;16.50;99.90;;;;;;5095066;28;20052;-85
2022/05/31 07:42:31;;;;;;;3.75;2.25;;;16.60;99.90;;;;;;5090214;28;20050;-84
2022/05/31 07:44:58;;;;;;;4.40;2.35;;;16.70;99.90;;;;;;5096612;28;20043;-86
2022/05/31 07:47:25;;;;;;;6.65;2.35;;;16.90;99.90;;;;;;5095841;28;20467;-85
2022/05/31 07:49:52;;;;;;;3.83;2.63;;;17.00;99.90;;;;;;5090229;28;20076;-85
2022/05/31 07:52:19;;;;;;;5.15;2.20;;;17.10;99.90;;;;;;5093237;28;20470;-85
2022/05/31 07:54:45;;;;;;;3.92;2.08;;;17.20;99.90;;;;;;5091491;28;20047;-84
2022/05/31 07:58:30;;;;;;;7.40;2.30;;;17.30;99.90;;;;;;5094227;28;20040;-84
2022/05/31 07:59:59;;;;;;;5.13;1.90;;;17.20;99.90;;;;;;5094862;28;20576;-84
2022/05/31 08:02:26;;;;;;;5.82;1.80;;;17.20;99.90;;;;;;5094882;28;20550;-87
2022/05/31 08:04:53;;;;;;;5.20;2.03;;;17.20;99.90;;;;;;5084368;28;20181;-88
2022/05/31 08:07:19;;;;;;;4.00;2.03;;;17.30;99.90;;;;;;5082887;28;20041;-88
2022/05/31 08:09:46;;;;;;;5.30;2.13;;;17.30;99.90;;;;;;5089933;28;20041;-87
2022/05/31 08:12:13;;;;;;;3.78;1.48;;;17.30;99.90;;;;;;5082584;28;20093;-89
2022/05/31 08:14:40;;;;;;;11.30;2.25;;;17.20;99.90;;;;;;5086241;28;20054;-88
2022/05/31 08:17:06;;;;;;;6.93;1.77;;;17.20;99.90;;;;;;5082950;28;20498;-88
2022/05/31 08:19:33;;;;;;;8.32;2.22;;;17.20;99.90;;;;;;5085858;28;20052;-88
2022/05/31 08:22:00;;;;;;;7.57;2.47;;;17.10;99.90;;;;;;5085479;28;20048;-88
2022/05/31 08:24:28;;;;;;;7.88;2.13;;;17.10;99.90;;;;;;5097924;28;20143;-87
2022/05/31 08:27:12;;;;;;;21.02;3.30;;;17.10;99.90;;;;;;5082246;28;20059;-88
2022/05/31 08:29:40;;;;;;;6.38;2.00;;;17.00;99.90;;;;;;5081651;28;20070;-88
2022/05/31 08:32:07;;;;;;;11.02;2.55;;;17.00;99.90;;;;;;5085933;28;20048;-88
2022/05/31 08:34:34;;;;;;;4.47;1.50;;;16.90;99.90;;;;;;5086107;28;20046;-88
2022/05/31 08:37:01;;;;;;;6.50;2.50;;;17.00;99.90;;;;;;5085979;28;20083;-88
2022/05/31 08:39:28;;;;;;;7.38;2.17;;;17.10;99.90;;;;;;5092478;28;20076;-87
2022/05/31 08:42:04;;;;;;;6.45;1.70;;;17.30;99.90;;;;;;5085770;28;20050;-88
2022/05/31 08:44:36;;;;;;;5.38;1.80;;;17.30;99.90;;;;;;5089973;28;20052;-88
2022/05/31 08:47:17;;;;;;;3.53;1.65;;;17.40;99.90;;;;;;5085035;28;20429;-87
2022/05/31 08:52:46;;;;;;;9.77;2.63;;;17.30;99.90;;;;;;5087122;28;20062;-88
2022/05/31 08:58:16;;;;;;;2.13;1.70;;;17.40;99.90;;;;;;5086425;28;20048;-85
2022/05/31 09:00:46;;;;;;;5.50;1.80;;;17.40;99.90;;;;;;5103165;28;20084;-85
2022/05/31 09:03:19;;;;;;;4.82;1.65;;;17.40;99.90;;;;;;5089084;28;20478;-85
2022/05/31 09:05:55;;;;;;;3.63;1.60;;;17.40;99.90;;;;;;5091777;28;20048;-86
2022/05/31 09:08:38;;;;;;;5.05;1.30;;;17.40;99.90;;;;;;5086658;28;20501;-85
2022/05/31 09:11:08;;;;;;;3.22;1.55;;;17.50;99.90;;;;;;5093476;28;20407;-83
2022/05/31 09:13:53;;;;;;;4.25;1.40;;;17.50;99.90;;;;;;5087539;28;20497;-83
2022/05/31 09:16:51;;;;;;;6.53;2.00;;;17.60;99.90;;;;;;5084599;28;20048;-85
2022/05/31 09:19:29;;;;;;;7.97;1.60;;;17.70;99.90;;;;;;5084406;28;20052;-85
2022/05/31 09:21:56;;;;;;;5.90;1.52;;;17.80;99.90;;;;;;5088103;28;20064;-85
2022/05/31 09:24:23;;;;;;;5.72;1.25;;;17.90;99.90;;;;;;5091170;28;20052;-85
2022/05/31 09:27:03;;;;;;;1.80;1.17;;;18.00;99.90;;;;;;5089009;28;20166;-85
2022/05/31 09:29:58;;;;;;;4.93;1.48;;;18.10;99.90;;;;;;5083770;28;20114;-85
2022/05/31 09:32:35;;;;;;;7.85;1.20;;;18.20;99.90;;;;;;5086770;28;20520;-86
2022/05/31 09:35:09;;;;;;;4.97;1.13;;;18.30;99.90;;;;;;5101851;28;20040;-86
2022/05/31 09:37:50;;;;;;;2.20;1.17;;;18.40;99.90;;;;;;5083712;28;20072;-85
2022/05/31 09:40:26;;;;;;;3.53;0.90;;;18.50;99.90;;;;;;5081210;28;20485;-85
2022/05/31 09:43:10;;;;;;;1.83;0.88;;;18.60;99.90;;;;;;5091318;28;20098;-86
2022/05/31 09:45:42;;;;;;;2.67;1.02;;;18.70;99.90;;;;;;5101254;28;20055;-86
2022/05/31 09:48:09;;;;;;;3.10;1.27;;;18.80;99.90;;;;;;5098904;28;20048;-85
2022/05/31 09:50:36;;;;;;;2.58;1.15;;;18.80;99.90;;;;;;5090571;28;20068;-85
2022/05/31 09:57:05;;;;;;;6.10;1.23;;;19.00;99.90;;;;;;5082846;28;20052;-85
2022/05/31 09:58:39;;;;;;;5.53;1.48;;;19.10;99.90;;;;;;5085195;28;20040;-85
2022/05/31 10:01:22;;;;;;;5.65;1.73;;;19.10;99.90;;;;;;5081154;28;20053;-85
2022/05/31 10:03:55;;;;;;;5.32;1.60;;;19.10;99.90;;;;;;5088165;28;20052;-86
2022/05/31 10:06:24;;;;;;;6.50;2.28;;;19.20;99.90;;;;;;5096445;28;20084;-86
2022/05/31 10:08:52;;;;;;;5.97;1.60;;;19.20;99.90;;;;;;5095731;28;20045;-87
2022/05/31 10:11:28;;;;;;;3.72;1.00;;;19.40;99.90;;;;;;5095950;28;20306;-86
2022/05/31 10:14:21;;;;;;;2.08;0.98;;;19.40;99.90;;;;;;5094995;28;20521;-85
2022/05/31 10:16:49;;;;;;;4.35;1.30;;;19.60;99.90;;;;;;5099650;28;20107;-86
2022/05/31 10:19:28;;;;;;;3.33;1.20;;;19.80;99.90;;;;;;5096630;28;20048;-86
2022/05/31 10:21:56;;;;;;;3.75;1.15;;;20.10;99.90;;;;;;5091438;28;20461;-86
2022/05/31 10:24:28;;;;;;;4.90;1.10;;;20.50;99.90;;;;;;5086050;28;20048;-82
2022/05/31 10:27:08;;;;;;;3.38;1.10;;;20.70;99.90;;;;;;5082455;28;20041;-86
2022/05/31 10:29:57;;;;;;;3.53;1.00;;;20.90;99.90;;;;;;5082981;28;20046;-86
2022/05/31 10:32:32;;;;;;;7.70;1.23;;;21.10;99.90;;;;;;5087975;28;20044;-85
2022/05/31 10:35:17;;;;;;;3.85;1.15;;;21.20;99.90;;;;;;5080969;28;20527;-85
2022/05/31 10:38:11;;;;;;;2.95;1.20;;;21.30;99.90;;;;;;5083828;28;20468;-83
2022/05/31 10:40:52;;;;;;;5.85;1.38;;;21.30;99.90;;;;;;5080901;28;20417;-86
2022/05/31 10:43:33;;;;;;;5.82;1.38;;;21.40;99.90;;;;;;5086745;28;20053;-87
2022/05/31 10:46:08;;;;;;;3.90;1.02;;;21.40;99.90;;;;;;5086597;28;20063;-83
2022/05/31 10:48:46;;;;;;;2.30;1.20;;;21.60;99.90;;;;;;5083452;28;20078;-86
2022/05/31 10:51:42;;;;;;;3.50;1.88;;;21.70;99.90;;;;;;5088603;28;20048;-85
2022/05/31 10:54:37;;;;;;;2.53;0.88;;;21.90;99.90;;;;;;5085460;28;20124;-83
2022/05/31 10:57:20;;;;;;;3.88;0.90;;;22.10;99.90;;;;;;5083152;28;20083;-85
2022/05/31 11:00:01;;;;;;;4.65;1.30;;;22.20;99.90;;;;;;5080572;28;20048;-83
2022/05/31 11:02:42;;;;;;;1.88;1.05;;;22.40;99.90;;;;;;5087546;28;20062;-85
2022/05/31 11:05:12;;;;;;;6.43;0.90;;;22.50;99.90;;;;;;5081631;28;20059;-86
2022/05/31 11:11:30;;;;;;;2.38;1.10;;;22.40;99.90;;;;;;5086919;28;20044;-86
2022/05/31 11:14:30;;;;;;;4.53;1.98;;;22.60;99.90;;;;;;5094626;28;20054;-87
2022/05/31 11:17:02;;;;;;;6.20;1.20;;;22.70;99.90;;;;;;5086455;28;20048;-83
2022/05/31 11:19:33;;;;;;;2.20;1.20;;;22.70;99.90;;;;;;5086043;28;20074;-86
2022/05/31 11:22:18;;;;;;;;;;;22.80;99.90;;;;;;5080865;28;20052;-86
2022/05/31 11:25:10;;;;;;;5.25;1.00;;;22.90;99.90;;;;;;5088283;28;19924;-86
2022/05/31 11:27:43;;;;;;;5.32;1.38;;;22.90;99.90;;;;;;5094951;28;20150;-85
2022/05/31 11:30:29;;;;;;;5.13;1.08;;;23.00;99.90;;;;;;5088794;28;20131;-85
2022/05/31 11:33:19;;;;;;;7.00;1.80;;;22.80;99.90;;;;;;5088996;28;20055;-84
2022/05/31 11:36:07;;;;;;;2.95;1.10;;;22.80;99.90;;;;;;5083026;28;20045;-85
2022/05/31 11:39:26;;;;;;;2.88;1.10;;;22.80;99.90;;;;;;5093359;28;20472;-84
2022/05/31 11:42:17;;;;;;;5.20;1.10;;;22.80;99.90;;;;;;5065638;28;20123;-84
2022/05/31 11:45:11;;;;;;;3.50;1.40;;;22.60;99.90;;;;;;5088839;28;20044;-85
2022/05/31 11:47:54;;;;;;;3.42;1.10;;;22.40;99.90;;;;;;5089020;28;20413;-87
2022/05/31 11:50:25;;;;;;;8.27;1.38;;;22.40;99.90;;;;;;5085898;28;20048;-87
2022/05/31 11:53:09;;;;;;;4.40;1.15;;;22.50;99.90;;;;;;5087275;28;20040;-85
2022/05/31 11:56:00;;;;;;;4.75;0.90;;;22.60;99.90;;;;;;5085443;28;20044;-85
2022/05/31 11:58:47;;;;;;;2.30;1.00;;;22.70;99.90;;;;;;5083196;28;20048;-85
2022/05/31 12:01:32;;;;;;;4.05;1.20;;;22.80;99.90;;;;;;5073436;28;20486;-85
2022/05/31 12:04:08;;;;;;;1.17;0.80;;;22.90;99.90;;;;;;5093501;28;20489;-84
2022/05/31 12:06:50;;;;;;;6.22;1.13;;;23.00;99.90;;;;;;5087012;28;20056;-85
2022/05/31 12:09:45;;;;;;;3.20;0.90;;;23.20;99.90;;;;;;5082696;28;20565;-85
2022/05/31 12:12:17;;;;;;;5.53;1.20;;;23.30;99.90;;;;;;5075083;28;20045;-86
2022/05/31 12:14:52;;;;;;;4.05;1.85;;;23.50;99.90;;;;;;5094806;28;20044;-84
2022/05/31 12:17:26;;;;;;;2.75;0.98;;;23.60;99.90;;;;;;5098794;28;20103;-84
2022/05/31 12:19:52;;;;;;;3.53;1.33;;;23.60;99.90;;;;;;5112292;28;20052;-87
2022/05/31 12:22:37;;;;;;;2.63;1.00;;;23.60;99.90;;;;;;5088443;28;20055;-84
2022/05/31 12:25:16;;;;;;;7.70;1.00;;;23.60;99.90;;;;;;5086495;28;20056;-85
2022/05/31 12:27:52;;;;;;;4.10;1.00;;;23.70;99.90;;;;;;5083446;28;20056;-85
2022/05/31 12:30:23;;;;;;;3.50;1.10;;;24.00;99.90;;;;;;5090367;28;20507;-85
2022/05/31 12:32:54;;;;;;;4.40;0.90;;;24.00;99.90;;;;;;5086421;28;20126;-85
2022/05/31 12:35:29;;;;;;;4.03;1.00;;;24.00;99.90;;;;;;5083217;28;20454;-85
2022/05/31 12:38:02;;;;;;;3.47;1.13;;;23.90;99.90;;;;;;5089590;28;20580;-85
2022/05/31 12:40:35;;;;;;;3.55;0.90;;;24.10;99.90;;;;;;5087104;28;20050;-86
2022/05/31 12:43:36;;;;;;;3.67;0.98;;;24.00;99.90;;;;;;5081602;28;20052;-84
2022/05/31 12:46:45;;;;;;;3.80;1.10;;;24.10;99.90;;;;;;5082290;28;20060;-84
2022/05/31 12:49:21;;;;;;;5.18;1.00;;;24.10;99.90;;;;;;5082776;28;20589;-85
2022/05/31 12:54:58;;;;;;;5.93;1.05;;;24.00;99.90;;;;;;5084382;28;20047;-85
2022/05/31 13:00:35;;;;;;;1.98;1.00;;;24.30;99.90;;;;;;5085306;28;20492;-85
2022/05/31 13:03:34;;;;;;;2.95;1.00;;;24.20;99.90;;;;;;5084959;28;20052;-87
2022/05/31 13:06:07;;;;;;;2.15;0.90;;;24.10;99.90;;;;;;5085176;28;20112;-84
2022/05/31 13:08:51;;;;;;;2.70;1.20;;;24.10;99.90;;;;;;5083355;28;20052;-85
2022/05/31 13:20:20;;;;;;;2.67;1.10;;;24.30;99.90;;;;;;5095705;28;20138;-86
2022/05/31 13:22:57;;;;;;;3.25;1.30;;;24.20;99.90;;;;;;5111196;28;20048;-85
2022/05/31 13:25:36;;;;;;;3.08;1.08;;;24.20;99.90;;;;;;5097856;28;20512;-86
2022/05/31 13:28:20;;;;;;;7.53;1.52;;;24.20;99.90;;;;;;5094621;28;20078;-89
2022/05/31 13:30:46;;;;;;;6.78;1.20;;;24.20;99.90;;;;;;5097952;28;20210;-85
2022/05/31 13:33:21;;;;;;;6.40;1.20;;;24.10;99.90;;;;;;5098762;28;20048;-86
2022/05/31 13:36:02;;;;;;;3.97;1.00;;;24.00;99.90;;;;;;5097258;28;20068;-86
2022/05/31 13:38:33;;;;;;;2.65;0.80;;;24.00;99.90;;;;;;5082289;28;20043;-85
2022/05/31 13:41:03;;;;;;;2.33;1.10;;;24.10;99.90;;;;;;5081872;28;20055;-83
2022/05/31 13:43:34;;;;;;;4.80;0.90;;;24.10;99.90;;;;;;5082029;28;20097;-85
2022/05/31 13:46:31;;;;;;;5.68;0.90;;;24.20;99.90;;;;;;5085401;28;20056;-85
2022/05/31 13:49:03;;;;;;;5.45;0.90;;;24.10;99.90;;;;;;5083830;28;20127;-85
2022/05/31 13:51:31;;;;;;;3.00;1.10;;;24.30;99.90;;;;;;5083308;28;20087;-86
2022/05/31 13:54:11;;;;;;;1.58;0.90;;;24.40;99.90;;;;;;5085147;28;20489;-85